createdAt,value
2023-03-29T00:01:06.598Z,3.30
2023-03-29T00:03:36.372Z,3.40
2023-03-29T00:06:05.637Z,4.20
2023-03-29T00:08:35.046Z,3.50
2023-03-29T00:11:03.670Z,3.33
2023-03-29T00:13:32.311Z,3.83
2023-03-29T00:16:00.614Z,3.93
2023-03-29T00:18:28.941Z,3.50
2023-03-29T00:21:00.209Z,3.93
2023-03-29T00:23:29.000Z,3.57
2023-03-29T00:25:57.704Z,2.93
2023-03-29T00:28:26.084Z,3.73
2023-03-29T00:30:55.491Z,3.90
2023-03-29T00:33:23.772Z,3.80
2023-03-29T00:35:54.614Z,3.83
2023-03-29T00:38:24.363Z,4.37
2023-03-29T00:40:52.712Z,3.37
2023-03-29T00:43:21.058Z,4.77
2023-03-29T00:45:49.567Z,5.90
2023-03-29T00:48:21.651Z,5.00
2023-03-29T00:50:53.123Z,3.43
2023-03-29T00:53:26.222Z,5.23
2023-03-29T00:55:59.749Z,4.50
2023-03-29T00:58:35.766Z,3.27
2023-03-29T01:01:08.788Z,3.80
2023-03-29T01:03:46.368Z,3.70
2023-03-29T01:06:18.027Z,4.20
2023-03-29T01:08:54.268Z,3.50
2023-03-29T01:11:26.612Z,3.30
2023-03-29T01:13:59.551Z,4.67
2023-03-29T01:16:30.496Z,3.90
2023-03-29T01:18:59.255Z,3.73
2023-03-29T01:21:32.350Z,4.07
2023-03-29T01:24:34.304Z,3.57
2023-03-29T01:27:09.817Z,3.30
2023-03-29T01:29:45.530Z,3.60
2023-03-29T01:32:18.113Z,3.10
2023-03-29T01:34:51.558Z,3.67
2023-03-29T01:37:24.943Z,3.90
2023-03-29T01:39:54.202Z,2.93
2023-03-29T01:42:40.081Z,4.03
2023-03-29T01:45:17.148Z,3.20
2023-03-29T01:47:50.348Z,3.77
2023-03-29T01:50:23.464Z,8.03
2023-03-29T01:52:57.940Z,3.60
2023-03-29T01:55:29.844Z,4.73
2023-03-29T01:58:01.272Z,4.30
2023-03-29T02:00:31.706Z,4.70
2023-03-29T02:03:05.785Z,2.93
2023-03-29T02:05:35.772Z,3.47
2023-03-29T02:08:06.879Z,2.60
2023-03-29T02:10:36.713Z,2.30
2023-03-29T02:13:05.517Z,3.80
2023-03-29T02:15:36.435Z,2.73
2023-03-29T02:18:06.650Z,2.23
2023-03-29T02:20:38.908Z,2.83
2023-03-29T02:23:13.653Z,2.30
2023-03-29T02:25:43.534Z,2.30
2023-03-29T02:28:12.576Z,2.30
2023-03-29T02:30:51.328Z,2.10
2023-03-29T02:33:24.114Z,2.10
2023-03-29T02:35:56.793Z,2.23
2023-03-29T02:38:27.829Z,2.23
2023-03-29T02:40:57.974Z,3.70
2023-03-29T02:43:28.291Z,1.90
2023-03-29T02:45:58.232Z,2.20
2023-03-29T02:48:29.450Z,2.27
2023-03-29T02:51:02.291Z,3.40
2023-03-29T02:53:35.968Z,6.60
2023-03-29T02:56:04.702Z,2.43
2023-03-29T02:58:33.027Z,2.60
2023-03-29T03:01:05.162Z,2.23
2023-03-29T03:03:33.578Z,1.87
2023-03-29T03:06:03.288Z,2.37
2023-03-29T03:08:32.289Z,3.37
2023-03-29T03:11:01.146Z,2.93
2023-03-29T03:13:29.414Z,2.13
2023-03-29T03:15:57.930Z,2.50
2023-03-29T03:18:27.801Z,2.03
2023-03-29T03:20:57.180Z,1.90
2023-03-29T03:23:25.962Z,3.07
2023-03-29T03:25:55.267Z,2.13
2023-03-29T03:28:24.202Z,2.37
2023-03-29T03:30:52.556Z,2.13
2023-03-29T03:33:40.950Z,2.00
2023-03-29T03:36:34.649Z,1.80
2023-03-29T03:39:05.748Z,2.97
2023-03-29T03:41:34.414Z,1.87
2023-03-29T03:44:03.165Z,1.80
2023-03-29T03:46:32.252Z,1.80
2023-03-29T03:49:03.076Z,2.03
2023-03-29T03:51:34.335Z,2.00
2023-03-29T03:54:02.672Z,2.20
2023-03-29T03:56:34.210Z,3.30
2023-03-29T03:59:16.673Z,2.00
2023-03-29T04:02:00.533Z,2.40
2023-03-29T04:04:30.889Z,3.13
2023-03-29T04:07:04.197Z,2.20
2023-03-29T04:09:55.464Z,2.67
2023-03-29T04:12:42.876Z,3.03
2023-03-29T04:15:12.179Z,2.00
2023-03-29T04:17:45.997Z,3.03
2023-03-29T04:20:32.702Z,3.70
2023-03-29T04:23:02.108Z,2.50
2023-03-29T04:25:31.646Z,3.17
2023-03-29T04:27:59.959Z,3.80
2023-03-29T04:30:48.221Z,2.63
2023-03-29T04:33:36.795Z,2.50
2023-03-29T04:36:07.486Z,2.67
2023-03-29T04:38:36.739Z,2.40
2023-03-29T04:41:05.857Z,2.00
2023-03-29T04:43:57.321Z,2.40
2023-03-29T04:46:27.634Z,2.80
2023-03-29T04:49:14.484Z,3.03
2023-03-29T04:51:48.779Z,2.40
2023-03-29T04:54:21.251Z,4.03
2023-03-29T04:57:09.652Z,2.30
2023-03-29T05:00:14.332Z,3.57
2023-03-29T05:03:01.330Z,2.63
2023-03-29T05:05:33.039Z,2.50
2023-03-29T05:08:04.829Z,3.83
2023-03-29T05:10:45.813Z,2.63
2023-03-29T05:13:15.263Z,4.23
2023-03-29T05:15:44.010Z,4.97
2023-03-29T05:18:12.307Z,3.43
2023-03-29T05:20:40.656Z,2.73
2023-03-29T05:23:12.499Z,4.00
2023-03-29T05:25:59.093Z,4.43
2023-03-29T05:28:27.374Z,2.70
2023-03-29T05:31:04.604Z,2.80
2023-03-29T05:33:35.517Z,3.13
2023-03-29T05:36:07.988Z,3.50
2023-03-29T05:38:41.491Z,3.73
2023-03-29T05:41:10.788Z,6.53
2023-03-29T05:43:58.182Z,3.93
2023-03-29T05:46:28.637Z,6.83
2023-03-29T05:48:59.318Z,3.00
2023-03-29T05:51:45.658Z,6.43
2023-03-29T05:54:16.700Z,3.00
2023-03-29T05:56:45.448Z,3.43
2023-03-29T05:59:17.663Z,3.37
2023-03-29T06:01:47.126Z,4.07
2023-03-29T06:04:19.103Z,4.67
2023-03-29T06:06:58.047Z,4.10
2023-03-29T06:09:27.708Z,4.73
2023-03-29T06:12:01.847Z,3.17
2023-03-29T06:14:36.409Z,4.17
2023-03-29T06:17:19.009Z,5.20
2023-03-29T06:19:48.178Z,3.27
2023-03-29T06:22:18.513Z,2.93
2023-03-29T06:24:48.203Z,4.67
2023-03-29T06:27:24.588Z,3.63
2023-03-29T06:29:53.124Z,3.33
2023-03-29T06:32:22.158Z,3.30
2023-03-29T06:35:00.457Z,3.63
2023-03-29T06:37:33.926Z,4.03
2023-03-29T06:40:17.516Z,4.70
2023-03-29T06:42:47.182Z,5.37
2023-03-29T06:45:36.959Z,3.30
2023-03-29T06:48:09.841Z,3.70
2023-03-29T06:50:38.399Z,4.90
2023-03-29T06:53:11.757Z,5.20
2023-03-29T06:55:42.576Z,4.80
2023-03-29T06:58:34.386Z,4.30
2023-03-29T07:01:10.004Z,4.27
2023-03-29T07:03:47.326Z,4.47
2023-03-29T07:06:20.385Z,4.97
2023-03-29T07:08:52.291Z,5.00
2023-03-29T07:11:35.349Z,4.73
2023-03-29T07:14:17.729Z,5.93
2023-03-29T07:16:47.394Z,4.10
2023-03-29T07:19:24.220Z,4.93
2023-03-29T07:21:53.346Z,6.67
2023-03-29T07:24:24.655Z,5.30
2023-03-29T07:27:03.461Z,4.10
2023-03-29T07:29:33.677Z,4.47
2023-03-29T07:32:01.917Z,3.77
2023-03-29T07:34:46.181Z,4.87
2023-03-29T07:37:21.905Z,4.20
2023-03-29T07:39:54.143Z,4.23
2023-03-29T07:42:43.851Z,4.13
2023-03-29T07:45:17.759Z,4.93
2023-03-29T07:48:00.267Z,4.23
2023-03-29T07:50:35.363Z,4.87
2023-03-29T07:53:06.353Z,5.40
2023-03-29T07:55:34.996Z,3.80
2023-03-29T07:58:30.586Z,5.50
2023-03-29T08:01:00.587Z,3.67
2023-03-29T08:03:48.113Z,3.50
2023-03-29T08:06:17.183Z,6.03
2023-03-29T08:08:45.639Z,3.80
2023-03-29T08:11:17.736Z,4.57
2023-03-29T08:14:05.596Z,3.40
2023-03-29T08:16:33.924Z,5.27
2023-03-29T08:19:08.639Z,5.73
2023-03-29T08:21:53.910Z,4.37
2023-03-29T08:24:25.498Z,4.30
2023-03-29T08:26:59.134Z,3.00
2023-03-29T08:29:29.245Z,2.90
2023-03-29T08:31:58.785Z,5.20
2023-03-29T08:34:27.273Z,4.97
2023-03-29T08:37:09.808Z,3.77
2023-03-29T08:39:43.437Z,5.37
2023-03-29T08:42:49.194Z,7.07
2023-03-29T08:45:27.444Z,3.70
2023-03-29T08:48:09.842Z,4.10
2023-03-29T08:50:42.093Z,3.20
2023-03-29T08:53:14.858Z,3.47
2023-03-29T08:56:11.734Z,3.33
2023-03-29T08:59:19.641Z,4.10
2023-03-29T09:01:54.426Z,2.77
2023-03-29T09:04:28.468Z,5.70
2023-03-29T09:07:10.066Z,3.73
2023-03-29T09:09:43.770Z,5.20
2023-03-29T09:12:44.696Z,4.43
2023-03-29T09:15:19.464Z,3.67
2023-03-29T09:18:10.656Z,3.97
2023-03-29T09:20:48.774Z,5.63
2023-03-29T09:23:37.722Z,4.27
2023-03-29T09:26:32.559Z,4.40
2023-03-29T09:29:45.347Z,3.73
2023-03-29T09:32:20.761Z,2.97
2023-03-29T09:35:02.213Z,4.93
2023-03-29T09:37:34.517Z,3.97
2023-03-29T09:40:11.072Z,3.23
2023-03-29T09:42:52.642Z,2.70
2023-03-29T09:45:20.952Z,3.50
2023-03-29T09:47:56.099Z,2.97
2023-03-29T09:50:34.293Z,2.60
2023-03-29T09:53:06.011Z,5.15
2023-03-29T09:55:40.673Z,2.28
2023-03-29T09:58:25.660Z,4.13
2023-03-29T10:00:59.049Z,3.27
2023-03-29T10:03:29.577Z,4.65
2023-03-29T10:06:21.364Z,2.97
2023-03-29T10:08:59.088Z,3.10
2023-03-29T10:11:38.293Z,2.67
2023-03-29T10:14:12.737Z,3.57
2023-03-29T10:16:46.103Z,2.37
2023-03-29T10:19:23.108Z,2.43
2023-03-29T10:21:53.914Z,2.50
2023-03-29T10:24:23.379Z,2.23
2023-03-29T10:26:56.968Z,3.78
2023-03-29T10:29:26.417Z,2.17
2023-03-29T10:31:55.487Z,4.60
2023-03-29T10:34:28.082Z,2.57
2023-03-29T10:37:01.148Z,4.30
2023-03-29T10:39:34.710Z,2.97
2023-03-29T10:42:05.139Z,3.57
2023-03-29T10:44:36.553Z,2.60
2023-03-29T10:47:16.311Z,3.43
2023-03-29T10:49:47.810Z,2.80
2023-03-29T10:52:18.257Z,4.20
2023-03-29T10:54:47.426Z,2.72
2023-03-29T10:57:23.689Z,2.30
2023-03-29T10:59:58.317Z,3.00
2023-03-29T11:02:49.271Z,3.63
2023-03-29T11:05:25.569Z,2.40
2023-03-29T11:08:21.851Z,2.30
2023-03-29T11:10:58.359Z,3.17
2023-03-29T11:13:35.132Z,5.68
2023-03-29T11:16:14.799Z,2.38
2023-03-29T11:18:54.159Z,3.22
2023-03-29T11:21:29.300Z,2.10
2023-03-29T11:24:15.223Z,2.07
2023-03-29T11:26:57.767Z,2.47
2023-03-29T11:29:30.932Z,3.03
2023-03-29T11:32:05.868Z,1.90
2023-03-29T11:34:43.644Z,2.90
2023-03-29T11:37:20.376Z,2.13
2023-03-29T11:40:01.446Z,5.55
2023-03-29T11:42:33.193Z,3.00
2023-03-29T11:45:05.451Z,2.53
2023-03-29T11:47:37.351Z,3.55
2023-03-29T11:50:15.924Z,2.88
2023-03-29T11:52:48.153Z,2.17
2023-03-29T11:55:22.620Z,3.22
2023-03-29T11:57:56.641Z,3.53
2023-03-29T12:00:28.512Z,2.80
2023-03-29T12:03:02.335Z,4.10
2023-03-29T12:05:34.822Z,3.58
2023-03-29T12:08:08.601Z,3.22
2023-03-29T12:10:42.214Z,4.20
2023-03-29T12:13:17.860Z,4.25
2023-03-29T12:15:53.908Z,3.67
2023-03-29T12:18:26.340Z,3.80
2023-03-29T12:20:58.586Z,2.10
2023-03-29T12:23:32.572Z,2.53
2023-03-29T12:26:08.732Z,3.00
2023-03-29T12:28:56.808Z,2.65
2023-03-29T12:31:32.727Z,2.15
2023-03-29T12:34:17.001Z,2.03
2023-03-29T12:37:33.470Z,2.95
2023-03-29T12:40:22.360Z,2.53
2023-03-29T12:43:31.477Z,5.80
2023-03-29T12:46:18.746Z,2.45
2023-03-29T12:48:50.373Z,2.78
2023-03-29T12:51:21.592Z,3.40
2023-03-29T12:53:52.066Z,4.82
2023-03-29T12:56:23.491Z,3.15
2023-03-29T12:59:17.693Z,3.72
2023-03-29T13:01:59.538Z,2.10
2023-03-29T13:04:39.103Z,2.20
2023-03-29T13:07:14.528Z,2.70
2023-03-29T13:09:50.420Z,2.28
2023-03-29T13:12:27.449Z,4.43
2023-03-29T13:15:00.339Z,3.40
2023-03-29T13:17:36.068Z,2.20
2023-03-29T13:20:28.052Z,2.30
2023-03-29T13:23:08.199Z,3.53
2023-03-29T13:25:58.493Z,4.32
2023-03-29T13:28:38.066Z,2.95
2023-03-29T13:31:20.056Z,2.67
2023-03-29T13:34:04.587Z,2.10
2023-03-29T13:36:46.664Z,2.28
2023-03-29T13:39:20.521Z,4.78
2023-03-29T13:41:51.089Z,2.22
2023-03-29T13:44:27.632Z,3.08
2023-03-29T13:47:28.287Z,5.20
2023-03-29T13:50:00.323Z,2.72
2023-03-29T13:52:31.801Z,2.45
2023-03-29T13:55:06.160Z,3.08
2023-03-29T13:57:39.629Z,2.50
2023-03-29T14:00:17.151Z,3.47
2023-03-29T14:02:51.568Z,5.10
2023-03-29T14:05:24.572Z,2.60
2023-03-29T14:07:54.446Z,4.90
2023-03-29T14:10:26.947Z,2.90
2023-03-29T14:12:56.802Z,1.67
2023-03-29T14:15:28.075Z,4.40
2023-03-29T14:18:00.689Z,2.72
2023-03-29T14:20:31.294Z,4.32
2023-03-29T14:22:59.591Z,4.78
2023-03-29T14:25:30.413Z,2.30
2023-03-29T14:27:58.564Z,2.72
2023-03-29T14:30:28.692Z,2.45
2023-03-29T14:32:58.357Z,3.55
2023-03-29T14:35:33.236Z,2.45
2023-03-29T14:38:03.915Z,2.28
2023-03-29T14:40:33.929Z,3.40
2023-03-29T14:43:07.116Z,3.40
2023-03-29T14:45:35.575Z,3.47
2023-03-29T14:48:05.746Z,3.85
2023-03-29T14:50:34.731Z,5.50
2023-03-29T14:53:03.964Z,3.70
2023-03-29T14:55:32.884Z,2.55
2023-03-29T14:58:01.303Z,4.07
2023-03-29T15:00:31.500Z,2.55
2023-03-29T15:03:01.718Z,3.88
2023-03-29T15:05:36.915Z,3.30
2023-03-29T15:08:07.395Z,3.53
2023-03-29T15:10:37.283Z,4.10
2023-03-29T15:13:07.807Z,3.80
2023-03-29T15:15:39.007Z,4.95
2023-03-29T15:18:09.240Z,3.70
2023-03-29T15:20:41.047Z,4.63
2023-03-29T15:23:21.083Z,4.53
2023-03-29T15:25:53.825Z,5.90
2023-03-29T15:28:28.229Z,3.63
2023-03-29T15:31:07.885Z,7.15
2023-03-29T15:33:38.188Z,3.70
2023-03-29T15:36:09.694Z,3.00
2023-03-29T15:38:44.513Z,6.03
2023-03-29T15:41:15.366Z,4.25
2023-03-29T15:43:44.338Z,5.53
2023-03-29T15:46:14.401Z,4.63
2023-03-29T15:48:43.361Z,5.03
2023-03-29T15:51:13.446Z,4.53
2023-03-29T15:53:42.224Z,5.13
2023-03-29T15:56:16.379Z,4.13
2023-03-29T15:58:45.068Z,4.07
2023-03-29T16:01:23.621Z,5.05
2023-03-29T16:03:52.109Z,2.90
2023-03-29T16:06:23.930Z,2.40
2023-03-29T16:08:52.303Z,5.90
2023-03-29T16:11:21.052Z,6.20
2023-03-29T16:13:49.449Z,3.88
2023-03-29T16:16:17.827Z,3.22
2023-03-29T16:18:46.040Z,3.22
2023-03-29T16:21:16.231Z,3.67
2023-03-29T16:23:47.047Z,4.40
2023-03-29T16:26:16.615Z,3.08
2023-03-29T16:28:45.497Z,5.30
2023-03-29T16:31:14.713Z,5.63
2023-03-29T16:33:43.260Z,4.07
2023-03-29T16:36:12.440Z,4.90
2023-03-29T16:38:40.827Z,3.35
2023-03-29T16:41:13.495Z,4.78
2023-03-29T16:43:41.669Z,5.47
2023-03-29T16:46:11.342Z,5.93
2023-03-29T16:48:39.897Z,4.55
2023-03-29T16:51:08.562Z,6.80
2023-03-29T16:53:36.976Z,7.72
2023-03-29T16:56:06.181Z,4.18
2023-03-29T16:58:36.208Z,5.10
2023-03-29T17:01:11.924Z,4.70
2023-03-29T17:03:41.069Z,8.32
2023-03-29T17:06:11.655Z,8.82
2023-03-29T17:08:42.510Z,7.63
2023-03-29T17:11:11.875Z,8.27
2023-03-29T17:13:41.496Z,6.43
2023-03-29T17:16:10.105Z,5.30
2023-03-29T17:18:38.608Z,4.85
2023-03-29T17:21:07.985Z,7.55
2023-03-29T17:23:36.169Z,5.67
2023-03-29T17:26:04.657Z,6.37
2023-03-29T17:28:33.209Z,5.97
2023-03-29T17:31:06.980Z,6.28
2023-03-29T17:33:36.035Z,7.47
2023-03-29T17:36:05.653Z,8.57
2023-03-29T17:38:34.740Z,6.33
2023-03-29T17:41:04.482Z,5.27
2023-03-29T17:43:32.883Z,3.80
2023-03-29T17:46:01.505Z,4.83
2023-03-29T17:48:33.003Z,5.57
2023-03-29T17:51:02.395Z,4.70
2023-03-29T17:53:30.756Z,3.90
2023-03-29T17:55:59.035Z,4.53
2023-03-29T17:58:27.550Z,5.47
2023-03-29T18:00:56.139Z,6.83
2023-03-29T18:03:24.512Z,6.77
2023-03-29T18:05:54.285Z,8.80
2023-03-29T18:08:22.432Z,8.20
2023-03-29T18:10:50.937Z,5.03
2023-03-29T18:13:25.554Z,5.47
2023-03-29T18:15:56.701Z,5.20
2023-03-29T18:18:25.646Z,5.23
2023-03-29T18:20:55.542Z,7.80
2023-03-29T18:23:23.882Z,7.23
2023-03-29T18:25:52.098Z,8.23
2023-03-29T18:28:20.524Z,7.50
2023-03-29T18:30:52.104Z,6.10
2023-03-29T18:33:20.768Z,7.47
2023-03-29T18:35:50.598Z,8.67
2023-03-29T18:38:22.445Z,8.00
2023-03-29T18:40:52.570Z,5.57
2023-03-29T18:43:21.023Z,6.30
2023-03-29T18:45:49.369Z,5.27
2023-03-29T18:48:17.762Z,4.90
2023-03-29T18:50:46.994Z,7.37
2023-03-29T18:53:16.692Z,4.43
2023-03-29T18:55:47.465Z,6.70
2023-03-29T18:58:17.770Z,7.13
2023-03-29T19:00:46.108Z,6.47
2023-03-29T19:03:14.658Z,7.20
2023-03-29T19:05:43.418Z,5.83
2023-03-29T19:08:11.623Z,7.30
2023-03-29T19:10:41.081Z,4.57
2023-03-29T19:13:10.947Z,7.43
2023-03-29T19:15:40.575Z,6.57
2023-03-29T19:18:09.277Z,5.13
2023-03-29T19:20:37.719Z,7.73
2023-03-29T19:23:06.337Z,7.13
2023-03-29T19:25:35.549Z,3.60
2023-03-29T19:28:04.913Z,4.57
2023-03-29T19:30:36.529Z,7.23
2023-03-29T19:33:04.900Z,6.70
2023-03-29T19:35:38.362Z,7.83
2023-03-29T19:38:07.093Z,4.37
2023-03-29T19:40:36.458Z,8.63
2023-03-29T19:43:05.117Z,7.33
2023-03-29T19:45:34.787Z,7.33
2023-03-29T19:48:03.784Z,5.67
2023-03-29T19:50:32.574Z,5.07
2023-03-29T19:53:01.576Z,8.20
2023-03-29T19:55:29.840Z,4.70
2023-03-29T19:57:58.839Z,5.93
2023-03-29T20:00:27.420Z,4.53
2023-03-29T20:02:57.843Z,6.33
2023-03-29T20:05:26.166Z,4.93
2023-03-29T20:07:54.634Z,4.37
2023-03-29T20:10:22.895Z,9.17
2023-03-29T20:12:51.189Z,3.37
2023-03-29T20:15:19.898Z,4.83
2023-03-29T20:17:52.045Z,6.47
2023-03-29T20:20:24.034Z,4.43
2023-03-29T20:22:53.958Z,5.07
2023-03-29T20:25:22.229Z,4.27
2023-03-29T20:27:51.432Z,5.20
2023-03-29T20:30:19.721Z,6.13
2023-03-29T20:32:47.942Z,6.33
2023-03-29T20:35:16.762Z,3.90
2023-03-29T20:37:46.490Z,5.13
2023-03-29T20:40:15.622Z,5.23
2023-03-29T20:42:46.183Z,5.77
2023-03-29T20:45:19.442Z,4.40
2023-03-29T20:47:57.595Z,7.93
2023-03-29T20:50:29.741Z,6.93
2023-03-29T20:53:03.311Z,6.50
2023-03-29T20:55:33.341Z,5.27
2023-03-29T20:58:03.009Z,6.90
2023-03-29T21:00:33.638Z,6.03
2023-03-29T21:03:03.722Z,8.57
2023-03-29T21:05:34.135Z,8.07
2023-03-29T21:08:04.351Z,7.17
2023-03-29T21:10:32.853Z,9.13
2023-03-29T21:13:02.585Z,7.47
2023-03-29T21:15:31.924Z,6.10
2023-03-29T21:18:00.797Z,8.37
2023-03-29T21:20:29.226Z,6.90
2023-03-29T21:22:57.650Z,9.07
2023-03-29T21:25:27.247Z,7.30
2023-03-29T21:27:55.478Z,7.93
2023-03-29T21:30:23.637Z,6.57
2023-03-29T21:32:52.149Z,10.07
2023-03-29T21:35:20.620Z,7.60
2023-03-29T21:37:49.010Z,7.03
2023-03-29T21:40:17.273Z,9.37
2023-03-29T21:42:46.884Z,7.87
2023-03-29T21:45:15.186Z,9.57
2023-03-29T21:47:43.961Z,8.77
2023-03-29T21:50:12.814Z,8.37
2023-03-29T21:52:40.996Z,7.27
2023-03-29T21:55:09.654Z,7.80
2023-03-29T21:57:37.899Z,11.60
2023-03-29T22:00:11.432Z,11.27
2023-03-29T22:02:40.394Z,7.03
2023-03-29T22:05:09.218Z,8.83
2023-03-29T22:07:38.778Z,9.37
2023-03-29T22:10:08.282Z,9.03
2023-03-29T22:12:38.510Z,9.77
2023-03-29T22:15:11.403Z,7.27
2023-03-29T22:17:41.279Z,7.13
2023-03-29T22:20:13.846Z,8.93
2023-03-29T22:22:45.878Z,7.20
2023-03-29T22:25:14.279Z,7.67
2023-03-29T22:27:43.930Z,10.20
2023-03-29T22:30:14.850Z,7.63
2023-03-29T22:32:43.908Z,10.73
2023-03-29T22:35:12.137Z,13.60
2023-03-29T22:37:44.658Z,12.07
2023-03-29T22:40:14.220Z,13.93
2023-03-29T22:42:42.448Z,6.33
2023-03-29T22:45:11.977Z,13.57
2023-03-29T22:47:41.554Z,9.97
2023-03-29T22:50:10.871Z,7.57
2023-03-29T22:52:39.136Z,8.67
2023-03-29T22:55:08.441Z,9.50
2023-03-29T22:57:36.679Z,10.30
2023-03-29T23:00:09.414Z,11.27
2023-03-29T23:02:38.005Z,9.80
2023-03-29T23:05:09.252Z,9.10
2023-03-29T23:07:37.743Z,9.17
2023-03-29T23:10:07.537Z,12.13
2023-03-29T23:12:36.552Z,12.87
2023-03-29T23:15:06.295Z,9.70
2023-03-29T23:17:34.766Z,13.93
2023-03-29T23:20:05.893Z,14.27
2023-03-29T23:22:36.443Z,9.17
2023-03-29T23:25:05.379Z,11.07
2023-03-29T23:27:34.716Z,12.57
2023-03-29T23:30:03.045Z,10.77
2023-03-29T23:32:31.433Z,11.63
2023-03-29T23:35:01.232Z,10.80
2023-03-29T23:37:29.381Z,12.10
2023-03-29T23:39:58.954Z,12.63
2023-03-29T23:42:27.185Z,12.10
2023-03-29T23:44:55.884Z,10.40
2023-03-29T23:47:24.282Z,13.53
2023-03-29T23:49:53.195Z,10.10
2023-03-29T23:52:21.425Z,11.13
2023-03-29T23:54:51.283Z,12.80
2023-03-29T23:57:21.510Z,12.77
2023-03-29T23:59:52.662Z,10.57
